Time;durP1;ratioP1;P1;durP2;ratioP2;P2;SDS_P1;SDS_P2;PMS_P1;PMS_P2;Temp;Humidity;BMP_temperature;BMP_pressure;BME280_temperature;BME280_humidity;BME280_pressure;Samples;Min_cycle;Max_cycle;Signal;HPM_P1;HPM_P2
2022/03/13 00:00:59;;;;;;;;;;;;;;;9.70;63.65;99780.97;4995636;28;19924;-66
2022/03/13 00:03:43;;;;;;;;;;;;;;;9.71;63.65;99799.13;4993627;28;19925;-66
2022/03/13 00:06:32;;;;;;;;;;;;;;;9.71;63.68;99793.94;4994337;28;19925;-66
2022/03/13 00:09:19;;;;;;;;;;;;;;;9.70;63.66;99797.38;4995086;28;20024;-66
2022/03/13 00:12:04;;;;;;;;;;;;;;;9.71;63.82;99791.34;4993696;28;20008;-66
2022/03/13 00:14:48;;;;;;;;;;;;;;;9.70;63.73;99781.84;4994201;28;19957;-66
2022/03/13 00:17:32;;;;;;;;;;;;;;;9.71;63.95;99762.88;4994699;28;19929;-66
2022/03/13 00:20:17;;;;;;;;;;;;;;;9.71;64.01;99768.06;4994819;28;20424;-66
2022/03/13 00:23:01;;;;;;;;;;;;;;;9.70;64.12;99755.97;4994290;28;19924;-66
2022/03/13 00:25:45;;;;;;;;;;;;;;;9.72;64.05;99754.28;4994087;28;19924;-66
2022/03/13 00:28:29;;;;;;;;;;;;;;;9.73;63.90;99755.13;4994021;28;20016;-66
2022/03/13 00:31:13;;;;;;;;;;;;;;;9.73;63.83;99757.72;4994433;28;20020;-67
2022/03/13 00:33:57;;;;;;;;;;;;;;;9.73;64.11;99773.25;4993995;28;19972;-66
2022/03/13 00:36:41;;;;;;;;;;;;;;;9.73;64.13;99781.00;4994290;28;19972;-66
2022/03/13 00:39:25;;;;;;;;;;;;;;;9.73;64.29;99778.44;4993163;28;19964;-66
2022/03/13 00:42:12;;;;;;;;;;;;;;;9.72;64.15;99782.75;4994742;28;19925;-66
2022/03/13 00:44:56;;;;;;;;;;;;;;;9.74;64.19;99772.41;4993784;28;19925;-66
2022/03/13 00:47:39;;;;;;;;;;;;;;;9.73;64.00;99776.69;4994763;28;19925;-66
2022/03/13 00:50:24;;;;;;;;;;;;;;;9.77;64.07;99774.16;4994363;28;19971;-66
2022/03/13 00:53:07;;;;;;;;;;;;;;;9.74;64.30;99765.50;4993171;28;19925;-65
2022/03/13 00:55:51;;;;;;;;;;;;;;;9.73;64.09;99768.94;4994672;28;19940;-66
2022/03/13 00:58:37;;;;;;;;;;;;;;;9.74;64.11;99760.31;4993907;28;19965;-65
2022/03/13 01:01:21;;;;;;;;;;;;;;;9.74;64.23;99759.47;4994285;28;20396;-66
2022/03/13 01:04:05;;;;;;;;;;;;;;;9.73;64.41;99758.56;4994407;28;19925;-66
2022/03/13 01:06:49;;;;;;;;;;;;;;;9.74;64.20;99760.31;4993331;28;20384;-65
2022/03/13 01:09:34;;;;;;;;;;;;;;;9.72;64.19;99754.28;4994071;28;20029;-66
2022/03/13 01:12:18;;;;;;;;;;;;;;;9.71;64.25;99749.94;4994124;28;19964;-65
2022/03/13 01:15:03;;;;;;;;;;;;;;;9.71;64.26;99747.34;4994396;28;19924;-65
2022/03/13 01:17:47;;;;;;;;;;;;;;;9.70;64.23;99737.84;4993926;28;19972;-66
2022/03/13 01:20:31;;;;;;;;;;;;;;;9.71;64.30;99738.72;4997157;28;19964;-65
2022/03/13 01:23:15;;;;;;;;;;;;;;;9.70;64.32;99737.84;4998118;28;19923;-65
2022/03/13 01:26:36;;;;;;;;;;;;;;;9.71;64.34;99739.59;4998028;28;19951;-66
2022/03/13 01:29:20;;;;;;;;;;;;;;;9.71;64.36;99729.25;4973851;28;20403;-66
2022/03/13 01:32:06;;;;;;;;;;;;;;;9.71;64.57;99729.25;4996712;28;19968;-66
2022/03/13 01:34:51;;;;;;;;;;;;;;;9.71;64.36;99744.78;4997388;28;19976;-66
2022/03/13 01:37:36;;;;;;;;;;;;;;;9.72;64.61;99745.63;4996702;28;20379;-66
2022/03/13 01:40:21;;;;;;;;;;;;;;;9.72;64.66;99741.34;4996797;28;19924;-65
2022/03/13 01:43:05;;;;;;;;;;;;;;;9.71;64.39;99744.78;4996729;28;19925;-65
2022/03/13 01:45:49;;;;;;;;;;;;;;;9.71;64.38;99734.41;4997608;28;19924;-65
2022/03/13 01:48:52;;;;;;;;;;;;;;;9.70;64.42;99717.16;4997450;28;19968;-66
2022/03/13 01:51:36;;;;;;;;;;;;;;;9.70;64.39;99713.69;4996514;28;19940;-65
2022/03/13 01:54:20;;;;;;;;;;;;;;;9.70;64.72;99716.25;4997266;28;20439;-66
2022/03/13 01:57:04;;;;;;;;;;;;;;;9.70;64.51;99719.75;4997510;28;20034;-66
2022/03/13 01:59:49;;;;;;;;;;;;;;;9.70;64.53;99718.84;4997016;28;19925;-65
2022/03/13 02:02:33;;;;;;;;;;;;;;;9.69;64.65;99718.00;4996863;28;19963;-66
2022/03/13 02:05:34;;;;;;;;;;;;;;;9.70;64.70;99716.25;4995912;28;20459;-65
2022/03/13 02:08:19;;;;;;;;;;;;;;;9.68;64.64;99718.84;4995894;28;19952;-65
2022/03/13 02:11:03;;;;;;;;;;;;;;;9.68;64.71;99708.50;4995632;28;19924;-65
2022/03/13 02:13:48;;;;;;;;;;;;;;;9.68;64.96;99705.91;4996778;28;19972;-65
2022/03/13 02:16:32;;;;;;;;;;;;;;;9.68;64.73;99705.91;4996063;28;20324;-66
2022/03/13 02:19:19;;;;;;;;;;;;;;;9.69;64.77;99701.59;4995566;28;20057;-65
2022/03/13 02:22:04;;;;;;;;;;;;;;;9.68;64.74;99705.03;4996086;28;20388;-65
2022/03/13 02:24:49;;;;;;;;;;;;;;;9.68;65.04;99705.03;4996907;28;19925;-66
2022/03/13 02:27:33;;;;;;;;;;;;;;;9.68;64.97;99698.13;4995641;28;19925;-66
2022/03/13 02:30:21;;;;;;;;;;;;;;;9.68;64.89;99699.84;4996329;28;19998;-66
2022/03/13 02:33:05;;;;;;;;;;;;;;;9.68;64.95;99698.13;4995352;28;19925;-67
2022/03/13 02:35:55;;;;;;;;;;;;;;;9.67;64.88;99688.63;4996257;28;19924;-65
2022/03/13 02:38:39;;;;;;;;;;;;;;;9.68;64.96;99679.13;4996124;28;20064;-66
2022/03/13 02:41:26;;;;;;;;;;;;;;;9.66;64.92;99680.84;4995236;28;19940;-65
2022/03/13 02:44:11;;;;;;;;;;;;;;;9.67;65.00;99669.63;4996260;28;19964;-65
2022/03/13 02:46:57;;;;;;;;;;;;;;;9.66;65.20;99658.44;4996170;28;19968;-66
2022/03/13 02:49:40;;;;;;;;;;;;;;;9.66;65.03;99657.53;4995062;28;20328;-65
2022/03/13 02:52:24;;;;;;;;;;;;;;;9.66;65.30;99653.25;4996496;28;20288;-65
2022/03/13 02:55:09;;;;;;;;;;;;;;;9.65;65.41;99650.66;4996226;28;19989;-65
2022/03/13 02:57:53;;;;;;;;;;;;;;;9.65;65.08;99642.91;4996193;28;19925;-65
2022/03/13 03:00:41;;;;;;;;;;;;;;;9.64;65.18;99649.78;4996465;28;19976;-65
2022/03/13 03:03:26;;;;;;;;;;;;;;;9.63;65.18;99645.44;4995012;28;19924;-65
2022/03/13 03:06:12;;;;;;;;;;;;;;;9.63;65.21;99640.28;4995860;28;19964;-66
2022/03/13 03:08:56;;;;;;;;;;;;;;;9.63;65.06;99637.69;4996068;28;19924;-66
2022/03/13 03:11:40;;;;;;;;;;;;;;;9.63;65.15;99642.84;4995295;28;20357;-66
2022/03/13 03:14:24;;;;;;;;;;;;;;;9.63;65.18;99636.81;4995430;28;19968;-65
2022/03/13 03:17:08;;;;;;;;;;;;;;;9.63;65.04;99636.81;4995467;28;19924;-65
2022/03/13 03:19:52;;;;;;;;;;;;;;;9.62;65.15;99633.34;4995106;28;20451;-65
2022/03/13 03:22:36;;;;;;;;;;;;;;;9.62;65.15;99628.19;4995028;28;19952;-65
2022/03/13 03:25:22;;;;;;;;;;;;;;;9.62;65.21;99629.91;4994175;28;20460;-65
2022/03/13 03:28:06;;;;;;;;;;;;;;;9.59;65.37;99628.13;4994747;28;20292;-65
2022/03/13 03:30:50;;;;;;;;;;;;;;;9.59;65.15;99630.72;4994946;28;20063;-66
2022/03/13 03:33:34;;;;;;;;;;;;;;;9.59;65.08;99628.13;4995651;28;19945;-66
2022/03/13 03:36:18;;;;;;;;;;;;;;;9.59;65.42;99626.44;4995683;28;20423;-66
2022/03/13 03:39:02;;;;;;;;;;;;;;;9.58;65.14;99629.88;4995038;28;19925;-65
2022/03/13 03:41:47;;;;;;;;;;;;;;;9.57;65.07;99630.72;4993537;28;19964;-65
2022/03/13 03:44:31;;;;;;;;;;;;;;;9.57;65.03;99632.44;4994728;28;20411;-66
2022/03/13 03:47:15;;;;;;;;;;;;;;;9.55;64.99;99640.16;4995486;28;19924;-66
2022/03/13 03:49:59;;;;;;;;;;;;;;;9.54;65.19;99640.16;4994910;28;20392;-66
2022/03/13 03:52:44;;;;;;;;;;;;;;;9.51;64.76;99640.09;4995293;28;19924;-65
2022/03/13 03:55:29;;;;;;;;;;;;;;;9.49;64.66;99634.94;4994524;28;20281;-66
2022/03/13 03:58:13;;;;;;;;;;;;;;;9.48;64.95;99632.31;4993967;28;19971;-65
2022/03/13 04:00:57;;;;;;;;;;;;;;;9.45;64.69;99634.00;4994724;28;19972;-65
2022/03/13 04:03:41;;;;;;;;;;;;;;;9.43;64.44;99642.59;4994559;28;20337;-66
2022/03/13 04:06:25;;;;;;;;;;;;;;;9.43;64.46;99645.19;4993871;28;19924;-65
2022/03/13 04:09:09;;;;;;;;;;;;;;;9.40;64.62;99638.25;4995031;28;19925;-65
2022/03/13 04:11:53;;;;;;;;;;;;;;;9.40;64.39;99634.78;4995010;28;19925;-66
2022/03/13 04:14:37;;;;;;;;;;;;;;;9.40;64.30;99640.84;4994759;28;20380;-66
2022/03/13 04:17:21;;;;;;;;;;;;;;;9.40;64.30;99640.84;4995050;28;19925;-66
2022/03/13 04:20:06;;;;;;;;;;;;;;;9.38;64.28;99639.94;4994144;28;19940;-66
2022/03/13 04:22:50;;;;;;;;;;;;;;;9.37;64.02;99635.63;4993762;28;20327;-65
2022/03/13 04:25:34;;;;;;;;;;;;;;;9.36;63.95;99641.63;4994300;28;20083;-66
2022/03/13 04:28:18;;;;;;;;;;;;;;;9.35;64.05;99639.00;4994053;28;19968;-65
2022/03/13 04:31:06;;;;;;;;;;;;;;;9.34;63.97;99634.72;4993637;28;19941;-65
2022/03/13 04:33:50;;;;;;;;;;;;;;;9.33;63.70;99643.31;4994170;28;19968;-66
2022/03/13 04:36:37;;;;;;;;;;;;;;;9.32;63.77;99639.00;4994709;28;19951;-65
2022/03/13 04:39:22;;;;;;;;;;;;;;;9.29;63.74;99639.78;4993605;28;19940;-66
2022/03/13 04:42:06;;;;;;;;;;;;;;;9.29;63.70;99632.91;4994231;28;19940;-65
2022/03/13 04:44:49;;;;;;;;;;;;;;;9.29;63.80;99629.44;4994242;28;19987;-67
2022/03/13 04:47:34;;;;;;;;;;;;;;;9.27;63.80;99626.84;4993509;28;20392;-66
2022/03/13 04:50:18;;;;;;;;;;;;;;;9.28;63.68;99630.28;4994693;28;19924;-66
2022/03/13 04:53:01;;;;;;;;;;;;;;;9.27;63.49;99626.84;4995004;28;19925;-66
2022/03/13 04:55:45;;;;;;;;;;;;;;;9.26;63.57;99632.00;4997915;28;20338;-67
2022/03/13 04:58:29;;;;;;;;;;;;;;;9.26;63.62;99632.00;4997797;28;20313;-65
2022/03/13 05:01:13;;;;;;;;;;;;;;;9.25;63.49;99619.94;4997985;28;19924;-67
2022/03/13 05:03:57;;;;;;;;;;;;;;;9.27;63.56;99623.38;4997974;28;19929;-67
2022/03/13 05:06:43;;;;;;;;;;;;;;;9.26;63.58;99616.50;4998441;28;20416;-66
2022/03/13 05:09:26;;;;;;;;;;;;;;;9.24;63.48;99624.22;4998072;28;20428;-65
2022/03/13 05:12:10;;;;;;;;;;;;;;;9.25;63.31;99622.50;4996971;28;19925;-66
2022/03/13 05:14:54;;;;;;;;;;;;;;;9.24;63.62;99621.63;4997950;28;19980;-65
2022/03/13 05:17:38;;;;;;;;;;;;;;;9.24;63.33;99626.81;4998112;28;19924;-66
2022/03/13 05:20:22;;;;;;;;;;;;;;;9.24;63.29;99620.78;4997259;28;20008;-66
2022/03/13 05:23:10;;;;;;;;;;;;;;;9.24;63.48;99628.53;4997790;28;19987;-66
2022/03/13 05:25:54;;;;;;;;;;;;;;;9.24;63.60;99623.38;4996834;28;20349;-66
2022/03/13 05:28:38;;;;;;;;;;;;;;;9.23;63.48;99622.47;4998035;28;19924;-66
2022/03/13 05:31:21;;;;;;;;;;;;;;;9.26;63.49;99624.25;4997508;28;19969;-67
2022/03/13 05:34:07;;;;;;;;;;;;;;;9.24;63.59;99623.38;4996656;28;19977;-65
2022/03/13 05:36:51;;;;;;;;;;;;;;;9.24;63.43;99624.22;4997345;28;19924;-66
2022/03/13 05:39:35;;;;;;;;;;;;;;;9.24;63.34;99626.81;4996949;28;20019;-66
2022/03/13 05:42:24;;;;;;;;;;;;;;;9.26;63.38;99622.53;4997637;28;20466;-65
2022/03/13 05:45:10;;;;;;;;;;;;;;;9.25;63.39;99630.28;4996409;28;19924;-65
2022/03/13 05:48:17;;;;;;;;;;;;;;;9.23;63.33;99622.47;4997135;28;19972;-66
2022/03/13 05:51:01;;;;;;;;;;;;;;;9.24;63.34;99621.63;4996357;28;20292;-66
2022/03/13 05:53:45;;;;;;;;;;;;;;;9.25;63.30;99625.09;4996767;28;19925;-65
2022/03/13 05:56:29;;;;;;;;;;;;;;;9.24;63.36;99624.22;4996697;28;19963;-66
2022/03/13 05:59:13;;;;;;;;;;;;;;;9.25;63.37;99625.09;4996851;28;20309;-65
2022/03/13 06:02:01;;;;;;;;;;;;;;;9.23;63.40;99627.66;4996972;28;20320;-66
2022/03/13 06:04:44;;;;;;;;;;;;;;;9.24;63.25;99621.63;4996661;28;19924;-65
2022/03/13 06:07:28;;;;;;;;;;;;;;;9.25;63.26;99627.69;4995755;28;19972;-65
2022/03/13 06:10:13;;;;;;;;;;;;;;;9.24;63.40;99616.47;4997130;28;20384;-66
2022/03/13 06:12:57;;;;;;;;;;;;;;;9.25;63.35;99613.03;4996672;28;20356;-66
2022/03/13 06:15:41;;;;;;;;;;;;;;;9.27;63.42;99615.63;4996985;28;19968;-66
2022/03/13 06:18:27;;;;;;;;;;;;;;;9.28;63.45;99617.38;4996235;28;19952;-66
2022/03/13 06:21:13;;;;;;;;;;;;;;;9.28;63.33;99614.78;4995587;28;19924;-66
2022/03/13 06:23:57;;;;;;;;;;;;;;;9.30;63.57;99613.09;4996218;28;19924;-66
2022/03/13 06:26:41;;;;;;;;;;;;;;;9.29;63.56;99611.34;4995904;28;19976;-65
2022/03/13 06:29:25;;;;;;;;;;;;;;;9.31;63.72;99612.25;4995078;28;19924;-66
2022/03/13 06:32:10;;;;;;;;;;;;;;;9.32;63.51;99608.81;4996344;28;19964;-66
2022/03/13 06:34:53;;;;;;;;;;;;;;;9.32;63.46;99613.13;4996749;28;19925;-66
2022/03/13 06:37:38;;;;;;;;;;;;;;;9.32;63.76;99605.38;4996005;28;19945;-66
2022/03/13 06:40:23;;;;;;;;;;;;;;;9.31;63.54;99617.41;4995272;28;20068;-65
2022/03/13 06:43:07;;;;;;;;;;;;;;;9.30;63.53;99613.09;4995987;28;19924;-65
2022/03/13 06:45:51;;;;;;;;;;;;;;;9.31;63.41;99619.16;4995562;28;19972;-65
2022/03/13 06:48:35;;;;;;;;;;;;;;;9.31;63.46;99616.56;4996585;28;19963;-66
2022/03/13 06:51:19;;;;;;;;;;;;;;;9.30;63.47;99620.84;4996000;28;19924;-65
2022/03/13 06:54:03;;;;;;;;;;;;;;;9.31;63.62;99616.56;4994902;28;19941;-66
2022/03/13 06:56:50;;;;;;;;;;;;;;;9.31;63.49;99619.16;4995863;28;19964;-66
2022/03/13 06:59:34;;;;;;;;;;;;;;;9.29;63.46;99612.22;4995905;28;19927;-66
2022/03/13 07:02:18;;;;;;;;;;;;;;;9.29;63.38;99622.56;4994705;28;19984;-65
2022/03/13 07:05:02;;;;;;;;;;;;;;;9.28;63.46;99620.84;4994781;28;19928;-66
2022/03/13 07:07:46;;;;;;;;;;;;;;;9.29;63.34;99626.88;4996030;28;20056;-66
2022/03/13 07:10:29;;;;;;;;;;;;;;;9.28;63.47;99638.94;4994871;28;19924;-65
2022/03/13 07:13:15;;;;;;;;;;;;;;;9.27;63.43;99624.25;4995594;28;19943;-66
2022/03/13 07:16:03;;;;;;;;;;;;;;;9.27;63.31;99628.56;4995083;28;19972;-66
2022/03/13 07:18:47;;;;;;;;;;;;;;;9.27;63.37;99636.31;4995609;28;19972;-66
2022/03/13 07:21:31;;;;;;;;;;;;;;;9.27;63.32;99626.84;4995153;28;19925;-66
2022/03/13 07:24:15;;;;;;;;;;;;;;;9.29;63.59;99621.69;4995459;28;19968;-66
2022/03/13 07:26:58;;;;;;;;;;;;;;;9.28;63.39;99628.59;4995577;28;20381;-66
2022/03/13 07:29:42;;;;;;;;;;;;;;;9.28;63.33;99638.06;4994738;28;19925;-66
2022/03/13 07:32:26;;;;;;;;;;;;;;;9.27;63.35;99634.59;4995165;28;19971;-65
2022/03/13 07:35:11;;;;;;;;;;;;;;;9.29;63.19;99634.63;4995359;28;19924;-66
2022/03/13 07:37:54;;;;;;;;;;;;;;;9.29;63.36;99634.63;4994625;28;19929;-65
2022/03/13 07:40:38;;;;;;;;;;;;;;;9.30;63.46;99636.34;4994710;28;19924;-66
2022/03/13 07:43:22;;;;;;;;;;;;;;;9.30;63.50;99633.78;4995281;28;19924;-66
2022/03/13 07:46:06;;;;;;;;;;;;;;;9.29;63.37;99632.91;4995324;28;19940;-66
2022/03/13 07:48:50;;;;;;;;;;;;;;;9.31;63.20;99626.91;4995118;28;19924;-66
2022/03/13 07:51:34;;;;;;;;;;;;;;;9.31;63.24;99621.72;4995137;28;19956;-66
2022/03/13 07:54:19;;;;;;;;;;;;;;;9.33;63.18;99641.59;4995104;28;19971;-66
2022/03/13 07:57:03;;;;;;;;;;;;;;;9.32;63.24;99636.41;4995008;28;19925;-65
2022/03/13 07:59:47;;;;;;;;;;;;;;;9.34;63.40;99640.75;4994749;28;19924;-65
2022/03/13 08:02:32;;;;;;;;;;;;;;;9.35;63.19;99636.41;4994702;28;19924;-66
2022/03/13 08:05:23;;;;;;;;;;;;;;;9.36;63.23;99638.16;4993853;28;19925;-66
2022/03/13 08:08:07;;;;;;;;;;;;;;;9.34;63.43;99640.75;4993985;28;19924;-66
2022/03/13 08:10:51;;;;;;;;;;;;;;;9.34;63.34;99638.16;4993728;28;20284;-65
2022/03/13 08:13:35;;;;;;;;;;;;;;;9.37;63.20;99625.28;4994797;28;19929;-65
2022/03/13 08:16:19;;;;;;;;;;;;;;;9.39;63.27;99622.69;4994285;28;19972;-65
2022/03/13 08:19:03;;;;;;;;;;;;;;;9.41;63.38;99631.34;4994766;28;19972;-66
2022/03/13 08:21:47;;;;;;;;;;;;;;;9.41;63.03;99621.88;4993537;28;20017;-66
2022/03/13 08:24:31;;;;;;;;;;;;;;;9.44;63.16;99629.66;4994119;28;19980;-66
2022/03/13 08:27:15;;;;;;;;;;;;;;;9.45;63.23;99627.97;4993320;28;19929;-66
2022/03/13 08:30:00;;;;;;;;;;;;;;;9.47;63.34;99620.22;4994659;28;19925;-65
2022/03/13 08:32:44;;;;;;;;;;;;;;;9.45;63.39;99622.78;4994366;28;19973;-66
2022/03/13 08:35:29;;;;;;;;;;;;;;;9.49;63.49;99622.00;4993904;28;20284;-65
2022/03/13 08:38:13;;;;;;;;;;;;;;;9.53;63.39;99623.75;4994233;28;19954;-65
2022/03/13 08:40:56;;;;;;;;;;;;;;;9.54;63.26;99622.06;4994360;28;19972;-65
2022/03/13 08:43:40;;;;;;;;;;;;;;;9.57;63.15;99619.50;4994706;28;19924;-66
2022/03/13 08:46:24;;;;;;;;;;;;;;;9.58;63.32;99619.50;4994347;28;19924;-65
2022/03/13 08:49:09;;;;;;;;;;;;;;;9.63;63.02;99626.47;4994749;28;19924;-65
2022/03/13 08:51:54;;;;;;;;;;;;;;;9.67;63.14;99612.72;4993261;28;19924;-66
2022/03/13 08:54:37;;;;;;;;;;;;;;;9.70;63.27;99626.59;4994026;28;20292;-65
2022/03/13 08:57:21;;;;;;;;;;;;;;;9.73;63.11;99618.81;4994232;28;20395;-66
2022/03/13 09:00:05;;;;;;;;;;;;;;;9.76;63.24;99615.44;4992809;28;19928;-65
2022/03/13 09:02:50;;;;;;;;;;;;;;;9.81;63.07;99618.06;4994137;28;20416;-65
2022/03/13 09:05:37;;;;;;;;;;;;;;;9.81;63.34;99607.72;4993463;28;20288;-65
2022/03/13 09:08:21;;;;;;;;;;;;;;;9.85;63.21;99606.91;4993541;28;19940;-66
2022/03/13 09:11:05;;;;;;;;;;;;;;;9.87;63.18;99611.25;4994111;28;19972;-65
2022/03/13 09:13:49;;;;;;;;;;;;;;;9.90;63.26;99607.81;4993701;28;19925;-65
2022/03/13 09:16:38;;;;;;;;;;;;;;;9.94;62.93;99598.38;4993674;28;19925;-65
2022/03/13 09:19:22;;;;;;;;;;;;;;;9.97;63.27;99614.81;4993961;28;19964;-65
2022/03/13 09:22:09;;;;;;;;;;;;;;;10.00;62.85;99598.44;4994196;28;19925;-65
2022/03/13 09:24:54;;;;;;;;;;;;;;;10.04;63.00;99603.66;4992922;28;20281;-66
2022/03/13 09:27:38;;;;;;;;;;;;;;;10.07;62.82;99605.44;4994275;28;20416;-66
2022/03/13 09:30:22;;;;;;;;;;;;;;;10.07;63.13;99595.09;4992996;28;19968;-65
2022/03/13 09:33:06;;;;;;;;;;;;;;;10.10;63.06;99602.88;4993212;28;19976;-66
2022/03/13 09:35:51;;;;;;;;;;;;;;;10.14;63.08;99596.00;4993805;28;19972;-65
2022/03/13 09:38:35;;;;;;;;;;;;;;;10.18;62.97;99600.38;4993896;28;19976;-65
2022/03/13 09:41:20;;;;;;;;;;;;;;;10.19;62.72;99617.66;4995629;28;20011;-65
2022/03/13 09:44:05;;;;;;;;;;;;;;;10.24;62.59;99612.53;4996314;28;20451;-65
2022/03/13 09:46:49;;;;;;;;;;;;;;;10.25;62.65;99609.94;4996359;28;20336;-65
2022/03/13 09:49:34;;;;;;;;;;;;;;;10.26;62.93;99608.22;4997492;28;19976;-65
2022/03/13 09:52:18;;;;;;;;;;;;;;;10.27;62.63;99604.78;4996587;28;19988;-65
2022/03/13 09:55:02;;;;;;;;;;;;;;;10.32;62.85;99610.84;4996395;28;19925;-65
2022/03/13 09:57:48;;;;;;;;;;;;;;;10.34;62.66;99617.81;4997355;28;19924;-65
2022/03/13 10:00:32;;;;;;;;;;;;;;;10.38;62.58;99617.81;4995690;28;19924;-65
2022/03/13 10:03:15;;;;;;;;;;;;;;;10.41;62.28;99610.13;4996661;28;19991;-65
2022/03/13 10:05:59;;;;;;;;;;;;;;;10.41;62.37;99608.41;4997131;28;20015;-65
2022/03/13 10:08:43;;;;;;;;;;;;;;;10.44;62.45;99608.41;4995918;28;20005;-65
2022/03/13 10:11:34;;;;;;;;;;;;;;;10.44;62.48;99611.00;4996866;28;20412;-65
2022/03/13 10:14:18;;;;;;;;;;;;;;;10.44;62.29;99611.00;4996564;28;19924;-65
2022/03/13 10:17:05;;;;;;;;;;;;;;;10.47;62.15;99615.38;4997167;28;20384;-65
2022/03/13 10:19:49;;;;;;;;;;;;;;;10.48;62.38;99606.75;4996344;28;19924;-65
2022/03/13 10:22:33;;;;;;;;;;;;;;;10.46;62.12;99588.56;4996554;28;19940;-65
2022/03/13 10:25:27;;;;;;;;;;;;;;;10.48;62.22;99581.69;4996977;28;19949;-65
2022/03/13 10:28:22;;;;;;;;;;;;;;;10.47;62.09;99590.31;4996061;28;20345;-65
2022/03/13 10:31:07;;;;;;;;;;;;;;;10.48;62.48;99588.59;4996422;28;19990;-65
2022/03/13 10:33:53;;;;;;;;;;;;;;;10.52;62.38;99582.56;4995717;28;19924;-65
2022/03/13 10:36:44;;;;;;;;;;;;;;;10.53;62.25;99586.91;4995333;28;20424;-66
2022/03/13 10:39:29;;;;;;;;;;;;;;;10.56;62.09;99575.72;4995560;28;19932;-65
2022/03/13 10:42:13;;;;;;;;;;;;;;;10.60;61.99;99582.66;4996398;28;19963;-65
2022/03/13 10:44:58;;;;;;;;;;;;;;;10.61;62.38;99568.84;4996233;28;19987;-65
2022/03/13 10:47:42;;;;;;;;;;;;;;;10.63;62.22;99567.13;4996216;28;19972;-65
2022/03/13 10:50:26;;;;;;;;;;;;;;;10.61;62.04;99558.47;4995573;28;19924;-65
2022/03/13 10:53:13;;;;;;;;;;;;;;;10.59;62.08;99555.88;4995994;28;19925;-65
2022/03/13 10:56:11;;;;;;;;;;;;;;;10.56;62.01;99558.44;4996015;28;19945;-66
2022/03/13 10:58:56;;;;;;;;;;;;;;;10.56;62.21;99561.03;4995330;28;20052;-65
2022/03/13 11:01:40;;;;;;;;;;;;;;;10.60;61.92;99559.31;4995315;28;20019;-65
2022/03/13 11:04:26;;;;;;;;;;;;;;;10.62;62.29;99550.72;4996178;28;19944;-65
2022/03/13 11:07:09;;;;;;;;;;;;;;;10.64;62.07;99540.34;4995545;28;19940;-65
2022/03/13 11:09:54;;;;;;;;;;;;;;;10.67;62.15;99535.22;4996271;28;20407;-65
2022/03/13 11:12:39;;;;;;;;;;;;;;;10.66;61.87;99538.66;4995908;28;19924;-65
2022/03/13 11:15:29;;;;;;;;;;;;;;;10.65;62.09;99542.97;4994654;28;20444;-65
2022/03/13 11:18:16;;;;;;;;;;;;;;;10.64;62.07;99545.53;4994904;28;20012;-65
2022/03/13 11:21:00;;;;;;;;;;;;;;;10.65;61.83;99549.88;4995854;28;19924;-65
2022/03/13 11:23:45;;;;;;;;;;;;;;;10.64;61.86;99556.78;4994748;28;19924;-66
2022/03/13 11:26:30;;;;;;;;;;;;;;;10.66;62.01;99549.03;4995312;28;20380;-65
2022/03/13 11:29:14;;;;;;;;;;;;;;;10.68;61.74;99552.50;4995029;28;19964;-66
2022/03/13 11:31:57;;;;;;;;;;;;;;;10.72;61.86;99558.56;4995133;28;19924;-66
2022/03/13 11:34:41;;;;;;;;;;;;;;;10.72;61.96;99563.75;4994820;28;19930;-66
2022/03/13 11:37:29;;;;;;;;;;;;;;;10.75;61.67;99562.03;4995115;28;20285;-66
2022/03/13 11:40:14;;;;;;;;;;;;;;;10.77;62.08;99556.88;4994020;28;19924;-66
2022/03/13 11:43:07;;;;;;;;;;;;;;;10.78;61.71;99553.44;4994573;28;20013;-66
2022/03/13 11:45:57;;;;;;;;;;;;;;;10.78;61.76;99546.50;4995369;28;19987;-65
2022/03/13 11:48:42;;;;;;;;;;;;;;;10.82;61.66;99542.25;4994434;28;20296;-65
2022/03/13 11:51:27;;;;;;;;;;;;;;;10.82;61.42;99557.78;4994613;28;19927;-66
2022/03/13 11:54:35;;;;;;;;;;;;;;;10.81;61.58;99532.72;4994261;28;19924;-66
2022/03/13 11:57:20;;;;;;;;;;;;;;;10.81;61.49;99540.50;4994860;28;20416;-65
2022/03/13 12:00:27;;;;;;;;;;;;;;;10.84;61.62;99544.84;4993983;28;20396;-66
2022/03/13 12:03:12;;;;;;;;;;;;;;;10.84;61.48;99530.13;4993165;28;19996;-65
2022/03/13 12:05:56;;;;;;;;;;;;;;;10.87;61.46;99543.13;4994283;28;19925;-66
2022/03/13 12:08:58;;;;;;;;;;;;;;;10.90;61.57;99534.50;4994474;28;19925;-65
2022/03/13 12:11:44;;;;;;;;;;;;;;;10.92;61.39;99535.38;4993694;28;20001;-65
2022/03/13 12:14:48;;;;;;;;;;;;;;;10.93;61.37;99532.81;4994033;28;19940;-66
2022/03/13 12:17:46;;;;;;;;;;;;;;;10.93;61.60;99531.91;4994796;28;20439;-66
2022/03/13 12:20:31;;;;;;;;;;;;;;;10.91;61.76;99523.25;4993679;28;19940;-66
2022/03/13 12:23:26;;;;;;;;;;;;;;;10.92;61.57;99525.00;4993708;28;19924;-66
2022/03/13 12:26:18;;;;;;;;;;;;;;;10.93;61.31;99522.44;4993579;28;20423;-66
2022/03/13 12:29:02;;;;;;;;;;;;;;;10.92;61.09;99519.81;4993390;28;19989;-66
2022/03/13 12:31:49;;;;;;;;;;;;;;;10.94;61.29;99533.66;4994534;28;20420;-67
2022/03/13 12:34:33;;;;;;;;;;;;;;;10.95;61.10;99544.06;4993997;28;20439;-66
2022/03/13 12:37:17;;;;;;;;;;;;;;;10.95;61.42;99531.09;4994116;28;19968;-66
2022/03/13 12:40:02;;;;;;;;;;;;;;;10.96;61.25;99537.13;4993383;28;19964;-66
2022/03/13 12:42:52;;;;;;;;;;;;;;;10.96;61.28;99537.13;4993831;28;19964;-66
2022/03/13 12:45:51;;;;;;;;;;;;;;;10.97;61.20;99528.50;4993812;28;19964;-66
2022/03/13 12:48:37;;;;;;;;;;;;;;;10.96;61.43;99534.53;4994582;28;19968;-65
2022/03/13 12:51:40;;;;;;;;;;;;;;;10.96;61.11;99538.00;4994639;28;19924;-66
2022/03/13 12:54:30;;;;;;;;;;;;;;;10.98;61.13;99529.38;4994214;28;19925;-66
2022/03/13 12:57:18;;;;;;;;;;;;;;;11.01;61.13;99534.56;4993745;28;19924;-66
2022/03/13 13:00:04;;;;;;;;;;;;;;;11.01;61.17;99530.25;4992920;28;20508;-66
2022/03/13 13:02:58;;;;;;;;;;;;;;;11.04;61.03;99526.81;4993723;28;20040;-66
2022/03/13 13:05:47;;;;;;;;;;;;;;;11.01;61.09;99522.47;4994353;28;19924;-66
2022/03/13 13:08:35;;;;;;;;;;;;;;;10.99;61.24;99519.00;4993688;28;20044;-65
2022/03/13 13:11:33;;;;;;;;;;;;;;;10.98;61.03;99517.25;4994360;28;19945;-65
2022/03/13 13:14:21;;;;;;;;;;;;;;;11.00;61.13;99522.44;4994623;28;20309;-65
2022/03/13 13:17:10;;;;;;;;;;;;;;;11.01;61.34;99516.41;4996551;28;19967;-66
2022/03/13 13:19:55;;;;;;;;;;;;;;;11.04;60.92;99514.72;4997446;28;19972;-65
2022/03/13 13:22:40;;;;;;;;;;;;;;;11.03;60.89;99517.28;4996905;28;20348;-65
2022/03/13 13:25:27;;;;;;;;;;;;;;;11.03;61.28;99517.28;4996662;28;19925;-66
2022/03/13 13:28:12;;;;;;;;;;;;;;;11.03;60.93;99514.69;4997102;28;19924;-66
2022/03/13 13:30:56;;;;;;;;;;;;;;;11.00;60.98;99502.59;4997208;28;20384;-66
2022/03/13 13:33:40;;;;;;;;;;;;;;;11.03;61.26;99514.69;4997482;28;19925;-66
2022/03/13 13:36:24;;;;;;;;;;;;;;;11.05;60.95;99507.78;4997775;28;19924;-66
2022/03/13 13:39:08;;;;;;;;;;;;;;;11.05;61.35;99494.81;4996885;28;20024;-66
2022/03/13 13:41:56;;;;;;;;;;;;;;;11.04;60.71;99495.69;4996627;28;20001;-66
2022/03/13 13:44:40;;;;;;;;;;;;;;;11.04;60.75;99512.13;4997079;28;19972;-66
2022/03/13 13:47:24;;;;;;;;;;;;;;;11.05;60.80;99500.91;4997231;28;19968;-66
2022/03/13 13:50:15;;;;;;;;;;;;;;;11.07;61.24;99504.34;4996891;28;20404;-66
2022/03/13 13:52:59;;;;;;;;;;;;;;;11.09;60.75;99525.13;4996458;28;19925;-66
2022/03/13 13:55:43;;;;;;;;;;;;;;;11.12;60.89;99509.56;4996443;28;19924;-66
2022/03/13 13:58:34;;;;;;;;;;;;;;;11.12;60.95;99510.44;4996085;28;20332;-66
2022/03/13 14:01:26;;;;;;;;;;;;;;;11.12;60.55;99509.56;4995761;28;20016;-66
2022/03/13 14:04:10;;;;;;;;;;;;;;;11.11;61.04;99508.69;4996056;28;19924;-66
2022/03/13 14:06:54;;;;;;;;;;;;;;;11.11;60.84;99500.91;4996676;28;20348;-67
2022/03/13 14:09:39;;;;;;;;;;;;;;;11.11;60.72;99511.28;4997277;28;20060;-66
2022/03/13 14:12:23;;;;;;;;;;;;;;;11.11;60.68;99515.63;4996038;28;20126;-66
2022/03/13 14:15:07;;;;;;;;;;;;;;;11.11;60.59;99518.22;4997261;28;19984;-66
2022/03/13 14:17:51;;;;;;;;;;;;;;;11.10;60.78;99519.06;4997117;28;20285;-66
2022/03/13 14:20:36;;;;;;;;;;;;;;;11.07;60.71;99527.69;4996580;28;19928;-66
2022/03/13 14:23:19;;;;;;;;;;;;;;;11.07;61.10;99524.22;4997044;28;19972;-66
2022/03/13 14:26:03;;;;;;;;;;;;;;;11.07;60.74;99532.00;4995972;28;19924;-66
2022/03/13 14:28:47;;;;;;;;;;;;;;;11.06;60.64;99535.47;4996319;28;20063;-66